Time;durP1;ratioP1;P1;durP2;ratioP2;P2;SDS_P1;SDS_P2;PMS_P1;PMS_P2;Temp;Humidity;BMP_temperature;BMP_pressure;BME280_temperature;BME280_humidity;BME280_pressure;Samples;Min_cycle;Max_cycle;Signal;HPM_P1;HPM_P2
2022/01/10 00:00:31;;;;;;;8.17;7.17;;;2.90;99.90;;;;;;5000383;28;20441;-67
2022/01/10 00:02:58;;;;;;;7.63;6.83;;;2.90;99.90;;;;;;5004374;28;20462;-67
2022/01/10 00:05:24;;;;;;;10.80;6.70;;;2.90;99.90;;;;;;5002216;28;20453;-67
2022/01/10 00:07:49;;;;;;;12.47;8.80;;;2.90;99.90;;;;;;4998289;28;20817;-67
2022/01/10 00:10:15;;;;;;;9.93;7.50;;;3.00;99.90;;;;;;4999379;28;20700;-67
2022/01/10 00:12:41;;;;;;;11.37;7.10;;;3.00;99.90;;;;;;5009046;28;20206;-67
2022/01/10 00:15:08;;;;;;;8.60;7.13;;;3.10;99.90;;;;;;4995672;28;20438;-67
2022/01/10 00:17:36;;;;;;;8.30;7.10;;;3.20;99.90;;;;;;5001251;28;20176;-67
2022/01/10 00:20:03;;;;;;;8.73;7.20;;;3.10;99.90;;;;;;5005109;28;20840;-67
2022/01/10 00:22:29;;;;;;;11.70;8.17;;;3.00;99.90;;;;;;4997881;28;20546;-67
2022/01/10 00:24:55;;;;;;;11.17;7.87;;;3.10;99.90;;;;;;4995099;28;20521;-68
2022/01/10 00:27:20;;;;;;;12.50;8.80;;;3.10;99.90;;;;;;5003749;28;20259;-67
2022/01/10 00:29:46;;;;;;;8.93;7.73;;;3.10;99.90;;;;;;5011370;28;20174;-67
2022/01/10 00:32:11;;;;;;;10.50;8.03;;;3.10;99.90;;;;;;4999337;28;20574;-67
2022/01/10 00:34:37;;;;;;;9.97;7.00;;;3.10;99.90;;;;;;5004405;28;20179;-67
2022/01/10 00:37:02;;;;;;;8.87;7.37;;;3.10;99.90;;;;;;4996387;28;20183;-67
2022/01/10 00:39:28;;;;;;;12.30;8.00;;;3.10;99.90;;;;;;5003902;28;20179;-67
2022/01/10 00:41:56;;;;;;;9.50;8.00;;;3.10;99.90;;;;;;4992860;28;20207;-67
2022/01/10 00:44:25;;;;;;;11.83;8.13;;;3.00;99.90;;;;;;5009866;28;20179;-67
2022/01/10 00:46:51;;;;;;;9.17;8.27;;;3.00;99.90;;;;;;4999088;28;20461;-67
2022/01/10 00:49:17;;;;;;;12.33;8.20;;;3.00;99.90;;;;;;4997286;28;20435;-67
2022/01/10 00:51:43;;;;;;;9.17;7.50;;;3.00;99.90;;;;;;4996290;28;20994;-67
2022/01/10 00:54:08;;;;;;;11.30;7.93;;;2.90;99.90;;;;;;4996590;28;20182;-67
2022/01/10 00:56:34;;;;;;;10.97;7.60;;;2.90;99.90;;;;;;4998418;28;20207;-67
2022/01/10 00:58:59;;;;;;;8.90;8.00;;;2.90;99.90;;;;;;5005512;28;20258;-67
2022/01/10 01:01:25;;;;;;;10.50;7.23;;;2.90;99.90;;;;;;5013617;28;20221;-67
2022/01/10 01:03:51;;;;;;;8.73;6.93;;;2.90;99.90;;;;;;5000634;28;20230;-68
2022/01/10 01:06:16;;;;;;;11.07;7.90;;;2.90;99.90;;;;;;4997915;28;20454;-67
2022/01/10 01:08:43;;;;;;;9.37;7.20;;;2.90;99.90;;;;;;5000540;28;20183;-67
2022/01/10 01:13:56;;;;;;;8.23;7.27;;;2.90;99.90;;;;;;4997291;28;20492;-67
2022/01/10 01:16:44;;;;;;;10.90;7.70;;;2.90;99.90;;;;;;5005177;28;20846;-67
2022/01/10 01:24:28;;;;;;;10.33;7.50;;;3.00;99.90;;;;;;5004107;28;20493;-67
2022/01/10 01:26:54;;;;;;;9.20;7.63;;;3.00;99.90;;;;;;5003974;28;20466;-67
2022/01/10 01:29:26;;;;;;;10.13;8.23;;;3.00;99.90;;;;;;4997274;28;20931;-67
2022/01/10 01:31:52;;;;;;;8.90;7.30;;;2.90;99.90;;;;;;5005632;28;20211;-67
2022/01/10 01:34:20;;;;;;;9.10;7.40;;;2.90;99.90;;;;;;5007517;28;20431;-67
2022/01/10 01:36:49;;;;;;;8.80;7.90;;;3.00;99.90;;;;;;4999913;28;20444;-67
2022/01/10 01:39:21;;;;;;;8.10;7.33;;;2.90;99.90;;;;;;5014561;28;20441;-67
2022/01/10 01:41:59;;;;;;;9.60;7.40;;;3.00;99.90;;;;;;5007182;28;20453;-67
2022/01/10 01:44:25;;;;;;;7.93;6.77;;;3.00;99.90;;;;;;5001285;28;20438;-67
2022/01/10 01:46:51;;;;;;;8.30;7.07;;;2.90;99.90;;;;;;5009183;28;20885;-67
2022/01/10 01:49:16;;;;;;;11.23;7.90;;;2.90;99.90;;;;;;4998188;28;20270;-67
2022/01/10 01:51:42;;;;;;;14.00;9.10;;;2.90;99.90;;;;;;5011114;28;20198;-67
2022/01/10 01:54:09;;;;;;;8.33;7.43;;;2.90;99.90;;;;;;4995355;28;20218;-67
2022/01/10 01:56:36;;;;;;;9.20;7.70;;;3.00;99.90;;;;;;5010689;28;20224;-67
2022/01/10 01:59:02;;;;;;;11.60;7.70;;;3.00;99.90;;;;;;5000146;28;20434;-67
2022/01/10 02:01:28;;;;;;;7.63;6.70;;;2.90;99.90;;;;;;4995593;28;20458;-67
2022/01/10 02:03:54;;;;;;;8.43;6.83;;;2.90;99.90;;;;;;5004643;28;20503;-67
2022/01/10 02:06:19;;;;;;;8.30;6.70;;;2.90;99.90;;;;;;5009014;28;20431;-67
2022/01/10 02:08:45;;;;;;;10.73;6.93;;;2.80;99.90;;;;;;5002480;28;20430;-67
2022/01/10 02:11:13;;;;;;;9.30;7.00;;;2.80;99.90;;;;;;5002167;28;20693;-67
2022/01/10 02:13:39;;;;;;;8.93;6.67;;;2.90;99.90;;;;;;4999402;28;20171;-67
2022/01/10 02:16:07;;;;;;;8.40;7.47;;;2.80;99.90;;;;;;4996032;28;20437;-67
2022/01/10 02:18:33;;;;;;;9.10;7.37;;;2.80;99.90;;;;;;4995247;28;20441;-67
2022/01/10 02:21:03;;;;;;;11.83;8.57;;;2.80;99.90;;;;;;4997840;28;20479;-67
2022/01/10 02:23:29;;;;;;;9.37;7.43;;;2.80;99.90;;;;;;4999630;28;20544;-66
2022/01/10 02:25:55;;;;;;;18.83;7.40;;;2.70;99.90;;;;;;5005774;28;20429;-67
2022/01/10 02:28:22;;;;;;;9.60;8.70;;;2.60;99.90;;;;;;5012700;28;20182;-67
2022/01/10 02:30:52;;;;;;;9.97;8.77;;;2.60;99.90;;;;;;5007856;28;20467;-67
2022/01/10 02:33:17;;;;;;;8.53;7.30;;;2.60;99.90;;;;;;4995429;28;20446;-67
2022/01/10 02:35:55;;;;;;;9.67;7.40;;;2.80;99.90;;;;;;4997028;28;20431;-67
2022/01/10 02:38:21;;;;;;;9.23;8.13;;;2.70;99.90;;;;;;4999276;28;20587;-67
2022/01/10 02:40:48;;;;;;;13.23;8.20;;;2.70;99.90;;;;;;5007783;28;20430;-67
2022/01/10 02:43:14;;;;;;;8.87;7.97;;;2.70;99.90;;;;;;4994830;28;20179;-67
2022/01/10 02:45:40;;;;;;;11.67;8.40;;;2.70;99.90;;;;;;5005085;28;21071;-66
2022/01/10 02:48:05;;;;;;;10.40;7.23;;;2.70;99.90;;;;;;4994449;28;20254;-67
2022/01/10 02:50:31;;;;;;;11.03;6.43;;;2.80;99.90;;;;;;5005498;28;20232;-67
2022/01/10 02:52:56;;;;;;;11.10;6.67;;;2.80;99.90;;;;;;4998554;28;20240;-67
2022/01/10 02:55:22;;;;;;;9.60;6.37;;;2.90;99.90;;;;;;5002998;28;20175;-67
2022/01/10 02:57:47;;;;;;;5.97;4.70;;;2.80;99.90;;;;;;5003243;28;20180;-67
2022/01/10 03:00:17;;;;;;;8.30;6.70;;;2.80;99.90;;;;;;4998323;28;20170;-67
2022/01/10 03:02:44;;;;;;;7.80;4.23;;;2.80;99.90;;;;;;5000789;28;20278;-67
2022/01/10 03:05:10;;;;;;;5.70;4.27;;;2.80;99.90;;;;;;5005054;28;20434;-67
2022/01/10 03:07:37;;;;;;;6.50;5.00;;;2.90;99.90;;;;;;5006530;28;20434;-67
2022/01/10 03:10:05;;;;;;;6.13;4.90;;;2.90;99.90;;;;;;4996585;28;20505;-67
2022/01/10 03:12:31;;;;;;;6.90;5.57;;;3.00;99.90;;;;;;5006703;28;20449;-67
2022/01/10 03:14:58;;;;;;;7.20;4.50;;;3.10;99.90;;;;;;4994157;28;20481;-67
2022/01/10 03:17:25;;;;;;;8.57;6.30;;;3.10;99.90;;;;;;5007829;28;20932;-67
2022/01/10 03:19:51;;;;;;;10.03;5.30;;;3.10;99.90;;;;;;5002109;28;20445;-67
2022/01/10 03:22:16;;;;;;;7.13;4.87;;;2.90;99.90;;;;;;4994725;28;20458;-67
2022/01/10 03:24:42;;;;;;;6.33;4.50;;;2.90;99.90;;;;;;5000849;28;20452;-68
2022/01/10 03:27:08;;;;;;;13.03;5.37;;;3.00;99.90;;;;;;5004781;28;20175;-67
2022/01/10 03:29:33;;;;;;;3.90;3.50;;;3.10;99.90;;;;;;5012564;28;20210;-67
2022/01/10 03:32:01;;;;;;;6.77;5.70;;;3.10;99.90;;;;;;4994756;28;20703;-67
2022/01/10 03:34:27;;;;;;;10.17;6.23;;;3.20;99.90;;;;;;5000943;28;20174;-67
2022/01/10 03:36:52;;;;;;;9.77;5.17;;;3.10;99.90;;;;;;4993517;28;20940;-66
2022/01/10 03:39:18;;;;;;;6.23;5.63;;;3.20;99.90;;;;;;4999936;28;20305;-67
2022/01/10 03:41:43;;;;;;;7.53;6.43;;;3.20;99.90;;;;;;4995399;28;20227;-67
2022/01/10 03:44:09;;;;;;;9.70;6.50;;;3.20;99.90;;;;;;4997604;28;20692;-67
2022/01/10 03:46:34;;;;;;;7.40;6.60;;;3.20;99.90;;;;;;5007123;28;20294;-67
2022/01/10 03:49:01;;;;;;;9.27;7.40;;;3.20;99.90;;;;;;5009234;28;20186;-67
2022/01/10 03:51:27;;;;;;;7.97;7.07;;;3.20;99.90;;;;;;5004004;28;20203;-67
2022/01/10 03:53:53;;;;;;;7.30;5.33;;;3.20;99.90;;;;;;5000130;28;20501;-67
2022/01/10 03:56:20;;;;;;;5.73;5.00;;;3.30;99.90;;;;;;5021593;28;20174;-67
2022/01/10 03:58:46;;;;;;;11.43;5.33;;;3.30;99.90;;;;;;5016464;28;20436;-67
2022/01/10 04:01:13;;;;;;;8.57;5.20;;;3.30;99.90;;;;;;5003832;28;20450;-68
2022/01/10 04:03:39;;;;;;;10.53;5.87;;;3.40;99.90;;;;;;4994429;28;20171;-69
2022/01/10 04:06:05;;;;;;;8.10;6.50;;;3.30;99.90;;;;;;5003221;28;20433;-70
2022/01/10 04:08:32;;;;;;;6.23;5.63;;;3.20;99.90;;;;;;5007109;28;20438;-69
2022/01/10 04:10:58;;;;;;;7.33;6.63;;;3.20;99.90;;;;;;4997206;28;20849;-69
2022/01/10 04:13:24;;;;;;;6.17;5.57;;;3.20;99.90;;;;;;5005671;28;20426;-69
2022/01/10 04:15:50;;;;;;;7.40;5.30;;;3.30;99.90;;;;;;5008166;28;20440;-69
2022/01/10 04:18:15;;;;;;;5.93;5.40;;;3.30;99.90;;;;;;5001616;28;20194;-69
2022/01/10 04:20:42;;;;;;;17.63;5.50;;;3.30;99.90;;;;;;4999002;28;20717;-68
2022/01/10 04:23:08;;;;;;;10.23;5.83;;;3.30;99.90;;;;;;4996321;28;20183;-69
2022/01/10 04:25:34;;;;;;;10.50;5.40;;;3.20;99.90;;;;;;4996920;28;20484;-69
2022/01/10 04:27:59;;;;;;;11.70;6.20;;;3.30;99.90;;;;;;4993739;28;20179;-69
2022/01/10 04:30:25;;;;;;;11.20;5.93;;;3.30;99.90;;;;;;5009952;28;20201;-69
2022/01/10 04:32:50;;;;;;;10.17;5.90;;;3.30;99.90;;;;;;5010326;28;20260;-69
2022/01/10 04:35:16;;;;;;;8.50;6.57;;;3.20;99.90;;;;;;5011672;28;20231;-69
2022/01/10 04:37:41;;;;;;;12.80;6.07;;;3.20;99.90;;;;;;4995004;28;20173;-69
2022/01/10 04:40:08;;;;;;;10.07;6.10;;;3.20;99.90;;;;;;4996213;28;20175;-69
2022/01/10 04:42:34;;;;;;;7.03;6.33;;;3.20;99.90;;;;;;5011395;28;20657;-68
2022/01/10 04:45:00;;;;;;;7.00;6.40;;;3.30;99.90;;;;;;5001631;28;20435;-69
2022/01/10 04:47:25;;;;;;;9.67;6.23;;;3.20;99.90;;;;;;4998247;28;20302;-69
2022/01/10 04:52:22;;;;;;;7.80;6.60;;;3.30;99.90;;;;;;5002002;28;20202;-68
2022/01/10 04:54:47;;;;;;;7.77;6.70;;;3.30;99.90;;;;;;5000637;28;20460;-69
2022/01/10 04:57:13;;;;;;;11.97;6.00;;;3.30;99.90;;;;;;4993748;28;20616;-69
2022/01/10 04:59:38;;;;;;;6.37;5.63;;;3.30;99.90;;;;;;5000940;28;20274;-68
2022/01/10 05:02:04;;;;;;;6.90;5.80;;;3.30;99.90;;;;;;5001334;28;20289;-69
2022/01/10 05:04:29;;;;;;;8.63;6.20;;;3.30;99.90;;;;;;5003126;28;20225;-69
2022/01/10 05:06:55;;;;;;;8.73;7.70;;;3.20;99.90;;;;;;5006762;28;20637;-69
2022/01/10 05:09:21;;;;;;;9.57;6.90;;;3.10;99.90;;;;;;4997222;28;20240;-69
2022/01/10 05:11:47;;;;;;;9.90;7.40;;;3.10;99.90;;;;;;5004672;28;20234;-69
2022/01/10 05:14:12;;;;;;;8.23;7.33;;;3.00;99.90;;;;;;4992031;28;20241;-68
2022/01/10 05:16:40;;;;;;;8.00;7.30;;;3.00;99.90;;;;;;5007296;28;20563;-68
2022/01/10 05:19:06;;;;;;;13.53;7.90;;;3.10;99.90;;;;;;4998968;28;20182;-69
2022/01/10 05:21:31;;;;;;;11.17;6.50;;;3.20;99.90;;;;;;5003223;28;20674;-69
2022/01/10 05:23:57;;;;;;;9.47;7.20;;;3.10;99.90;;;;;;4994757;28;20187;-69
2022/01/10 05:26:22;;;;;;;13.33;7.57;;;3.20;99.90;;;;;;4993260;28;20211;-69
2022/01/10 05:28:48;;;;;;;12.45;7.15;;;3.10;99.90;;;;;;5007937;28;20450;-69
2022/01/10 05:31:13;;;;;;;8.40;6.47;;;3.20;99.90;;;;;;4997429;28;20203;-69
2022/01/10 05:33:39;;;;;;;8.90;7.47;;;3.20;99.90;;;;;;5004850;28;20174;-69
2022/01/10 05:36:05;;;;;;;11.97;8.03;;;3.20;99.90;;;;;;5002956;28;20523;-68
2022/01/10 05:38:30;;;;;;;9.13;7.17;;;3.10;99.90;;;;;;5013233;28;20202;-68
2022/01/10 05:40:56;;;;;;;9.60;6.73;;;3.10;99.90;;;;;;5007795;28;20200;-69
2022/01/10 05:43:22;;;;;;;10.33;7.33;;;3.20;99.90;;;;;;4996054;28;20179;-69
2022/01/10 05:45:48;;;;;;;13.40;7.30;;;3.10;99.90;;;;;;4998463;28;20204;-68
2022/01/10 05:48:20;;;;;;;11.63;7.00;;;3.10;99.90;;;;;;5010122;28;20258;-69
2022/01/10 05:50:46;;;;;;;8.30;6.70;;;3.10;99.90;;;;;;5001419;28;20473;-68
2022/01/10 05:53:11;;;;;;;14.27;7.20;;;3.20;99.90;;;;;;5005547;28;20923;-69
2022/01/10 05:55:38;;;;;;;13.70;7.50;;;3.10;99.90;;;;;;4999484;28;20167;-69
2022/01/10 05:58:06;;;;;;;9.23;7.60;;;3.20;99.90;;;;;;5001744;28;20172;-68
2022/01/10 06:00:34;;;;;;;9.57;7.27;;;3.30;99.90;;;;;;5002160;28;20909;-69
2022/01/10 06:03:00;;;;;;;23.07;11.70;;;3.30;99.90;;;;;;5001481;28;20548;-69
2022/01/10 06:05:30;;;;;;;13.83;9.47;;;3.20;99.90;;;;;;5002950;28;20890;-69
2022/01/10 06:08:00;;;;;;;11.67;8.70;;;3.10;99.90;;;;;;5014113;28;20171;-69
2022/01/10 06:10:26;;;;;;;14.17;9.10;;;3.20;99.90;;;;;;5008571;28;20465;-69
2022/01/10 06:12:52;;;;;;;18.47;8.93;;;3.20;99.90;;;;;;5012483;28;20523;-69
2022/01/10 06:15:18;;;;;;;14.33;9.27;;;3.30;99.90;;;;;;5013625;28;20450;-69
2022/01/10 06:17:43;;;;;;;20.57;13.63;;;3.30;99.90;;;;;;4997110;28;20514;-69
2022/01/10 06:20:09;;;;;;;18.60;15.33;;;3.40;99.90;;;;;;5004724;28;20183;-69
2022/01/10 06:22:35;;;;;;;16.20;10.10;;;3.40;99.90;;;;;;5005703;28;20803;-69
2022/01/10 06:25:00;;;;;;;14.70;11.40;;;3.40;99.90;;;;;;5013554;28;20189;-69
2022/01/10 06:27:26;;;;;;;18.17;12.47;;;3.40;99.90;;;;;;4999237;28;20187;-68
2022/01/10 06:29:52;;;;;;;16.63;11.17;;;3.30;99.90;;;;;;4996732;28;20231;-69
2022/01/10 06:32:18;;;;;;;15.87;11.33;;;3.30;99.90;;;;;;5013760;28;20201;-69
2022/01/10 06:34:43;;;;;;;11.40;9.57;;;3.40;99.90;;;;;;5002630;28;20247;-68
2022/01/10 06:37:09;;;;;;;12.40;9.73;;;3.40;99.90;;;;;;5001316;28;20851;-69
2022/01/10 06:39:35;;;;;;;17.90;12.07;;;3.40;99.90;;;;;;4995641;28;20176;-68
2022/01/10 06:42:00;;;;;;;19.50;11.00;;;3.40;99.90;;;;;;4999625;28;20285;-69
2022/01/10 06:44:26;;;;;;;19.40;13.10;;;3.40;99.90;;;;;;5004258;28;20430;-68
2022/01/10 06:46:52;;;;;;;26.50;15.47;;;3.50;99.90;;;;;;5005518;28;20195;-69
2022/01/10 06:49:18;;;;;;;17.17;10.70;;;3.50;99.90;;;;;;5007863;28;20179;-69
2022/01/10 06:51:43;;;;;;;19.60;11.40;;;3.40;99.90;;;;;;4996941;28;20485;-69
2022/01/10 06:54:09;;;;;;;14.50;11.03;;;3.40;99.90;;;;;;5004765;28;20175;-69
2022/01/10 06:56:35;;;;;;;16.07;11.10;;;3.40;99.90;;;;;;5007436;28;20326;-68
2022/01/10 06:59:00;;;;;;;19.97;13.43;;;3.50;99.90;;;;;;5012977;28;20179;-69
2022/01/10 07:01:26;;;;;;;23.40;13.33;;;3.60;99.90;;;;;;5012807;28;20796;-69
2022/01/10 07:03:56;;;;;;;24.10;16.13;;;3.50;99.90;;;;;;4994144;28;20175;-68
2022/01/10 07:06:21;;;;;;;25.77;15.30;;;3.60;99.90;;;;;;4994552;28;20175;-68
2022/01/10 07:08:47;;;;;;;22.60;13.60;;;3.60;99.90;;;;;;5003937;28;20430;-69
2022/01/10 07:11:12;;;;;;;22.80;13.97;;;3.50;99.90;;;;;;5010437;28;20229;-68
2022/01/10 07:13:38;;;;;;;21.23;13.63;;;3.60;99.90;;;;;;5004654;28;20178;-68
2022/01/10 07:16:04;;;;;;;21.23;13.03;;;3.50;99.90;;;;;;5006536;28;20182;-69
2022/01/10 07:18:29;;;;;;;18.77;11.60;;;3.60;99.90;;;;;;5003060;28;20200;-69
2022/01/10 07:20:55;;;;;;;20.90;13.63;;;3.50;99.90;;;;;;5000385;28;20204;-69
2022/01/10 07:23:22;;;;;;;23.70;14.13;;;3.50;99.90;;;;;;5003974;28;20599;-68
2022/01/10 07:25:48;;;;;;;25.50;13.30;;;3.40;99.90;;;;;;5004122;28;20176;-69
2022/01/10 07:28:14;;;;;;;25.17;14.20;;;3.40;99.90;;;;;;5001583;28;20521;-69
2022/01/10 07:30:39;;;;;;;23.27;14.40;;;3.30;99.90;;;;;;5003618;28;20198;-71
2022/01/10 07:33:05;;;;;;;25.30;14.37;;;3.30;99.90;;;;;;5002073;28;20219;-67
2022/01/10 07:35:30;;;;;;;27.33;15.67;;;3.40;99.90;;;;;;5002140;28;20671;-69
2022/01/10 07:37:56;;;;;;;27.23;15.40;;;3.40;99.90;;;;;;4999749;28;20565;-69
2022/01/10 07:40:22;;;;;;;28.03;14.63;;;3.50;99.90;;;;;;5007292;28;20178;-69
2022/01/10 07:42:47;;;;;;;22.87;13.67;;;3.50;99.90;;;;;;5010744;28;20203;-70
2022/01/10 07:45:13;;;;;;;18.13;11.70;;;3.60;99.90;;;;;;5001434;28;20445;-69
2022/01/10 07:47:38;;;;;;;17.63;11.37;;;3.60;99.90;;;;;;4997744;28;20198;-68
2022/01/10 07:50:05;;;;;;;20.40;11.97;;;3.60;99.90;;;;;;5010865;28;20304;-68
2022/01/10 07:52:31;;;;;;;19.73;12.70;;;3.60;99.90;;;;;;4998681;28;20199;-68
2022/01/10 07:54:56;;;;;;;17.40;12.40;;;3.60;99.90;;;;;;5003379;28;20430;-68
2022/01/10 07:57:22;;;;;;;24.50;13.60;;;3.60;99.90;;;;;;4977723;28;20190;-68
2022/01/10 07:59:48;;;;;;;23.23;13.20;;;3.50;99.90;;;;;;4994139;28;20183;-68
2022/01/10 08:02:15;;;;;;;20.63;13.17;;;3.60;99.90;;;;;;5008624;28;20278;-67
2022/01/10 08:04:40;;;;;;;22.33;14.07;;;3.50;99.90;;;;;;4999229;28;20410;-68
2022/01/10 08:07:06;;;;;;;22.10;15.20;;;3.50;99.90;;;;;;5008800;28;20524;-68
2022/01/10 08:09:31;;;;;;;26.13;18.83;;;3.60;99.90;;;;;;4996649;28;20273;-68
2022/01/10 08:11:59;;;;;;;26.77;14.73;;;3.60;99.90;;;;;;5001662;28;20208;-68
2022/01/10 08:14:29;;;;;;;26.37;16.30;;;3.60;99.90;;;;;;5001075;28;20203;-68
2022/01/10 08:16:55;;;;;;;20.87;14.13;;;3.60;99.90;;;;;;4996740;28;20979;-68
2022/01/10 08:19:20;;;;;;;20.33;14.73;;;3.70;99.90;;;;;;5001911;28;20430;-68
2022/01/10 08:21:46;;;;;;;20.63;13.73;;;3.70;99.90;;;;;;5006433;28;20466;-68
2022/01/10 08:24:12;;;;;;;20.90;13.83;;;3.70;99.90;;;;;;5015089;28;20675;-69
2022/01/10 08:26:37;;;;;;;18.60;12.70;;;3.60;99.90;;;;;;5006212;28;20225;-68
2022/01/10 08:29:03;;;;;;;22.97;14.50;;;3.80;99.90;;;;;;5004123;28;20182;-68
2022/01/10 08:31:28;;;;;;;22.43;12.30;;;3.70;99.90;;;;;;4999409;28;20231;-67
2022/01/10 08:33:54;;;;;;;19.27;12.10;;;3.70;99.90;;;;;;5007513;28;20217;-68
2022/01/10 08:36:19;;;;;;;18.03;11.90;;;3.70;99.90;;;;;;5008640;28;20548;-68
2022/01/10 08:38:45;;;;;;;18.17;11.37;;;3.60;99.90;;;;;;4996628;28;20626;-69
2022/01/10 08:41:11;;;;;;;18.13;13.10;;;3.60;99.90;;;;;;4998330;28;20213;-68
2022/01/10 08:43:37;;;;;;;16.57;10.90;;;3.60;99.90;;;;;;4989292;28;20176;-68
2022/01/10 08:46:03;;;;;;;19.17;12.40;;;3.60;99.90;;;;;;4995511;28;20719;-68
2022/01/10 08:48:28;;;;;;;21.20;12.90;;;3.60;99.90;;;;;;4998877;28;20290;-68
2022/01/10 08:50:54;;;;;;;21.73;12.37;;;3.60;99.90;;;;;;4997477;28;20513;-68
2022/01/10 08:53:19;;;;;;;20.23;10.90;;;3.60;99.90;;;;;;4999425;28;20592;-68
2022/01/10 08:55:46;;;;;;;21.53;13.17;;;3.70;99.90;;;;;;4999007;28;20978;-67
2022/01/10 08:58:12;;;;;;;22.17;12.53;;;3.80;99.90;;;;;;4996298;28;20201;-68
2022/01/10 09:00:38;;;;;;;19.80;12.20;;;3.80;99.90;;;;;;5006032;28;20572;-68
2022/01/10 09:03:03;;;;;;;25.50;13.57;;;3.80;99.90;;;;;;5000946;28;20178;-68
2022/01/10 09:05:30;;;;;;;18.93;11.87;;;4.00;99.90;;;;;;4992349;28;20185;-69
2022/01/10 09:08:00;;;;;;;24.27;13.73;;;4.20;99.90;;;;;;5004983;28;20194;-68
2022/01/10 09:10:26;;;;;;;19.20;11.17;;;4.10;99.90;;;;;;5010029;28;20461;-68
2022/01/10 09:12:52;;;;;;;19.83;12.43;;;4.10;99.90;;;;;;4996052;28;20552;-68
2022/01/10 09:15:18;;;;;;;19.33;12.00;;;4.20;99.90;;;;;;5010117;28;20434;-68
2022/01/10 09:17:43;;;;;;;24.50;13.03;;;4.20;99.90;;;;;;5000380;28;20553;-68
2022/01/10 09:20:10;;;;;;;22.70;11.57;;;4.10;99.90;;;;;;4993718;28;20265;-68
2022/01/10 09:22:35;;;;;;;17.87;11.67;;;4.10;99.90;;;;;;4993759;28;20200;-68
2022/01/10 09:25:01;;;;;;;20.27;12.63;;;4.40;99.90;;;;;;4993967;28;20441;-68
2022/01/10 09:27:27;;;;;;;18.53;11.30;;;4.40;99.90;;;;;;4997900;28;20476;-68
2022/01/10 09:29:53;;;;;;;17.97;10.43;;;4.50;99.90;;;;;;5005750;28;20191;-68
2022/01/10 09:32:18;;;;;;;16.70;11.90;;;4.60;99.90;;;;;;5002134;28;20197;-68
2022/01/10 09:34:44;;;;;;;15.80;10.80;;;4.50;99.90;;;;;;4995448;28;20183;-68
2022/01/10 09:37:09;;;;;;;16.37;10.70;;;4.50;99.90;;;;;;4994860;28;20560;-66
2022/01/10 09:39:35;;;;;;;16.83;10.27;;;4.50;99.90;;;;;;4998934;28;20286;-68
2022/01/10 09:42:01;;;;;;;14.43;9.90;;;4.50;99.90;;;;;;4998659;28;20206;-67
2022/01/10 09:44:27;;;;;;;17.23;9.07;;;4.50;99.90;;;;;;5004380;28;20186;-67
2022/01/10 09:46:53;;;;;;;16.87;10.27;;;4.40;99.90;;;;;;5002079;28;20791;-67
2022/01/10 09:49:19;;;;;;;17.67;10.63;;;4.50;99.90;;;;;;5006996;28;20277;-67
2022/01/10 09:51:45;;;;;;;19.23;10.60;;;4.60;99.90;;;;;;5003274;28;20540;-66
2022/01/10 09:54:12;;;;;;;15.20;10.00;;;4.70;99.90;;;;;;5009039;28;20182;-67
2022/01/10 09:56:38;;;;;;;15.93;11.00;;;4.80;99.90;;;;;;4998183;28;20465;-66
2022/01/10 09:59:05;;;;;;;16.50;10.30;;;4.90;99.90;;;;;;4998664;28;20812;-67
2022/01/10 10:01:31;;;;;;;18.67;10.13;;;5.00;99.90;;;;;;4998068;28;20888;-66
2022/01/10 10:03:59;;;;;;;17.50;10.57;;;4.90;99.90;;;;;;5004449;28;20503;-66
2022/01/10 10:06:29;;;;;;;15.37;11.00;;;4.80;99.90;;;;;;5006779;28;20911;-66
2022/01/10 10:09:08;;;;;;;19.10;11.70;;;4.80;99.90;;;;;;4997432;28;20613;-66
2022/01/10 10:11:49;;;;;;;14.30;12.00;;;4.80;99.90;;;;;;4994714;28;20474;-66
2022/01/10 10:14:17;;;;;;;18.23;11.50;;;4.80;99.90;;;;;;4999332;28;20434;-66
2022/01/10 10:16:49;;;;;;;17.47;11.50;;;4.90;99.90;;;;;;5006663;28;20442;-66
2022/01/10 10:19:20;;;;;;;17.53;11.37;;;4.80;99.90;;;;;;4997288;28;20435;-66
2022/01/10 10:21:46;;;;;;;17.93;11.80;;;4.90;99.90;;;;;;4995049;28;20466;-66
2022/01/10 10:24:13;;;;;;;18.20;11.77;;;5.00;99.90;;;;;;4997103;28;20442;-66
2022/01/10 10:26:39;;;;;;;19.73;12.40;;;5.00;99.90;;;;;;4999769;28;20443;-66
2022/01/10 10:29:05;;;;;;;17.33;11.07;;;5.00;99.90;;;;;;5002125;28;20445;-66
2022/01/10 10:31:32;;;;;;;19.50;13.73;;;5.20;99.90;;;;;;5003530;28;20488;-66
2022/01/10 10:34:01;;;;;;;21.83;11.30;;;5.40;99.90;;;;;;4999011;28;20452;-66
2022/01/10 10:36:30;;;;;;;15.90;11.50;;;5.60;99.90;;;;;;4997734;28;20577;-66
2022/01/10 10:38:57;;;;;;;19.67;12.60;;;5.80;99.90;;;;;;5004945;28;20445;-66
2022/01/10 10:41:22;;;;;;;24.50;12.97;;;5.80;99.90;;;;;;5000170;28;20890;-66
2022/01/10 10:43:51;;;;;;;15.50;10.73;;;5.70;99.90;;;;;;5005456;28;20438;-65
2022/01/10 10:46:18;;;;;;;15.77;11.40;;;5.60;99.90;;;;;;4996446;28;20250;-66
2022/01/10 10:48:58;;;;;;;24.37;13.17;;;5.50;99.90;;;;;;4997681;28;20666;-68
2022/01/10 10:51:29;;;;;;;19.83;13.10;;;5.50;99.90;;;;;;4985413;28;20501;-67
2022/01/10 10:54:06;;;;;;;18.30;13.47;;;5.60;99.90;;;;;;5003390;28;20434;-68
2022/01/10 10:56:37;;;;;;;22.00;13.50;;;5.50;99.90;;;;;;4993557;28;20430;-68
2022/01/10 10:59:04;;;;;;;21.53;12.90;;;5.60;99.90;;;;;;4997973;28;20446;-67
2022/01/10 11:01:29;;;;;;;17.33;14.60;;;5.50;99.90;;;;;;4997850;28;20823;-67
2022/01/10 11:03:55;;;;;;;19.63;13.70;;;5.40;99.90;;;;;;4999942;28;20466;-67
2022/01/10 11:06:21;;;;;;;20.47;13.23;;;5.40;99.90;;;;;;5005281;28;20175;-67
2022/01/10 11:08:48;;;;;;;20.20;13.93;;;5.30;99.90;;;;;;4994397;28;20473;-70
2022/01/10 11:11:22;;;;;;;27.00;14.20;;;5.30;99.90;;;;;;5010116;28;20461;-69
2022/01/10 11:13:49;;;;;;;22.50;15.80;;;5.40;99.90;;;;;;5009298;28;20429;-70
2022/01/10 11:16:16;;;;;;;26.53;18.80;;;5.40;99.90;;;;;;5000299;28;20947;-69
2022/01/10 11:18:42;;;;;;;19.67;14.10;;;5.30;99.90;;;;;;4996094;28;20427;-68
2022/01/10 11:21:08;;;;;;;18.60;13.27;;;5.20;99.90;;;;;;5004374;28;21062;-67
2022/01/10 11:23:44;;;;;;;16.13;12.20;;;5.30;99.90;;;;;;5012602;28;20430;-67
2022/01/10 11:26:14;;;;;;;21.40;14.87;;;5.20;99.90;;;;;;5005919;28;20175;-69
2022/01/10 11:29:09;;;;;;;20.70;14.17;;;5.30;99.90;;;;;;4994206;28;20466;-68
2022/01/10 11:31:37;;;;;;;16.03;13.13;;;5.30;99.90;;;;;;5003309;28;20497;-67
2022/01/10 11:34:03;;;;;;;16.07;11.47;;;5.30;99.90;;;;;;4999858;28;20987;-67
2022/01/10 11:36:29;;;;;;;15.70;12.03;;;5.30;99.90;;;;;;5008144;28;20513;-68
2022/01/10 11:39:01;;;;;;;16.40;11.80;;;5.50;99.90;;;;;;5006657;28;20500;-68
2022/01/10 11:41:30;;;;;;;20.60;12.10;;;5.50;99.90;;;;;;4998480;28;20462;-64
2022/01/10 11:44:06;;;;;;;17.70;11.47;;;5.60;99.90;;;;;;5007566;28;20452;-64
2022/01/10 11:46:40;;;;;;;16.63;10.60;;;5.90;99.90;;;;;;5003208;28;20480;-65
2022/01/10 11:49:09;;;;;;;14.87;11.10;;;6.10;99.90;;;;;;5000245;28;20490;-67
2022/01/10 11:51:50;;;;;;;16.30;12.03;;;6.20;99.90;;;;;;4999103;28;20553;-67
2022/01/10 11:54:34;;;;;;;22.07;11.53;;;6.50;99.90;;;;;;4999085;28;20431;-67
2022/01/10 11:57:02;;;;;;;14.70;11.90;;;6.60;99.90;;;;;;5004222;28;20512;-67
2022/01/10 11:59:39;;;;;;;16.23;11.47;;;6.80;99.90;;;;;;4998316;28;20435;-67
2022/01/10 12:02:10;;;;;;;16.13;11.23;;;7.00;99.90;;;;;;5000950;28;20504;-67
2022/01/10 12:04:41;;;;;;;16.43;11.60;;;7.50;99.90;;;;;;4999792;28;20524;-67
2022/01/10 12:07:10;;;;;;;20.43;14.23;;;7.70;99.90;;;;;;5001561;28;20444;-67
2022/01/10 12:09:37;;;;;;;17.33;12.13;;;7.40;99.90;;;;;;4992829;28;20487;-65
2022/01/10 12:12:03;;;;;;;18.60;11.40;;;7.10;99.90;;;;;;5006808;28;20465;-67
2022/01/10 12:14:30;;;;;;;14.30;11.70;;;6.60;99.90;;;;;;5004300;28;20860;-67
2022/01/10 12:16:57;;;;;;;14.80;10.10;;;6.70;99.90;;;;;;4992943;28;20469;-66
2022/01/10 12:19:24;;;;;;;20.80;14.33;;;6.90;99.90;;;;;;5008203;28;20449;-67
2022/01/10 12:21:50;;;;;;;15.33;11.27;;;7.00;99.90;;;;;;5006686;28;20466;-67
2022/01/10 12:24:17;;;;;;;21.70;10.60;;;7.10;99.90;;;;;;5001475;28;20442;-67
2022/01/10 12:26:43;;;;;;;18.40;10.60;;;7.20;99.90;;;;;;5004165;28;20568;-67
2022/01/10 12:29:11;;;;;;;13.70;10.27;;;7.00;99.90;;;;;;4998462;28;20859;-66
2022/01/10 12:31:39;;;;;;;20.87;10.47;;;6.90;99.90;;;;;;5003578;28;20465;-67
2022/01/10 12:34:08;;;;;;;19.93;9.87;;;6.40;99.90;;;;;;5007748;28;20986;-67
2022/01/10 12:36:35;;;;;;;16.93;8.87;;;6.30;99.90;;;;;;4998709;28;20431;-65
2022/01/10 12:39:15;;;;;;;15.87;9.77;;;6.40;99.90;;;;;;5003541;28;21050;-65
2022/01/10 12:41:41;;;;;;;12.93;9.83;;;6.20;99.90;;;;;;4991263;28;20469;-67
2022/01/10 12:44:06;;;;;;;17.17;10.53;;;6.20;99.90;;;;;;4994560;28;20450;-67
2022/01/10 12:46:33;;;;;;;12.63;11.03;;;6.10;99.90;;;;;;4999341;28;20194;-65
2022/01/10 12:49:05;;;;;;;14.90;10.70;;;6.20;99.90;;;;;;5001985;28;20266;-67
2022/01/10 12:51:42;;;;;;;13.73;11.13;;;6.30;99.90;;;;;;4998395;28;20478;-66
2022/01/10 12:54:13;;;;;;;18.23;10.13;;;6.40;99.90;;;;;;4998839;28;20448;-66